createdAt,value
2022-09-11T00:01:03.861Z,6.77
2022-09-11T00:03:31.564Z,4.83
2022-09-11T00:06:06.738Z,6.43
2022-09-11T00:08:35.175Z,5.47
2022-09-11T00:11:08.707Z,7.47
2022-09-11T00:13:36.915Z,4.73
2022-09-11T00:16:07.325Z,5.57
2022-09-11T00:18:38.006Z,3.43
2022-09-11T00:21:08.038Z,3.93
2022-09-11T00:23:35.575Z,4.17
2022-09-11T00:26:03.652Z,5.53
2022-09-11T00:28:31.185Z,3.97
2022-09-11T00:31:05.388Z,4.57
2022-09-11T00:33:33.569Z,3.07
2022-09-11T00:36:10.760Z,10.13
2022-09-11T00:38:38.499Z,4.73
2022-09-11T00:41:09.049Z,6.73
2022-09-11T00:43:54.061Z,4.10
2022-09-11T00:46:23.625Z,4.93
2022-09-11T00:48:50.668Z,6.00
2022-09-11T00:51:24.723Z,8.00
2022-09-11T00:53:54.429Z,4.87
2022-09-11T00:56:23.544Z,5.50
2022-09-11T00:58:54.950Z,5.17
2022-09-11T01:01:21.922Z,3.77
2022-09-11T01:03:50.268Z,3.90
2022-09-11T01:06:18.639Z,5.87
2022-09-11T01:08:45.524Z,8.63
2022-09-11T01:11:15.375Z,10.63
2022-09-11T01:13:52.877Z,5.40
2022-09-11T01:16:29.643Z,7.33
2022-09-11T01:19:04.643Z,5.23
2022-09-11T01:21:40.656Z,3.17
2022-09-11T01:24:26.172Z,5.63
2022-09-11T01:26:58.422Z,3.50
2022-09-11T01:29:39.565Z,4.00
2022-09-11T01:32:22.351Z,8.30
2022-09-11T01:35:00.175Z,6.73
2022-09-11T01:37:53.189Z,7.77
2022-09-11T01:40:27.278Z,5.10
2022-09-11T01:43:03.509Z,8.90
2022-09-11T01:45:31.775Z,6.77
2022-09-11T01:48:00.629Z,7.10
2022-09-11T01:50:29.560Z,3.50
2022-09-11T01:53:00.911Z,5.27
2022-09-11T01:55:57.230Z,8.20
2022-09-11T01:58:30.191Z,8.77
2022-09-11T02:01:05.745Z,5.30
2022-09-11T02:03:42.757Z,5.80
2022-09-11T02:06:15.461Z,3.20
2022-09-11T02:08:55.967Z,6.00
2022-09-11T02:11:23.217Z,5.33
2022-09-11T02:14:03.163Z,4.20
2022-09-11T02:16:42.468Z,5.47
2022-09-11T02:19:34.449Z,6.10
2022-09-11T02:22:01.490Z,5.20
2022-09-11T02:24:28.709Z,6.27
2022-09-11T02:27:00.761Z,6.13
2022-09-11T02:29:27.866Z,4.97
2022-09-11T02:31:56.486Z,5.27
2022-09-11T02:34:29.918Z,4.40
2022-09-11T02:37:01.826Z,6.97
2022-09-11T02:39:31.516Z,6.60
2022-09-11T02:42:19.840Z,7.43
2022-09-11T02:45:07.048Z,5.97
2022-09-11T02:47:40.592Z,5.10
2022-09-11T02:50:22.531Z,9.70
2022-09-11T02:53:02.706Z,3.80
2022-09-11T02:55:48.283Z,3.47
2022-09-11T02:58:27.000Z,3.70
2022-09-11T03:00:58.515Z,5.37
2022-09-11T03:03:25.408Z,8.50
2022-09-11T03:05:52.487Z,4.97
2022-09-11T03:08:20.471Z,9.63
2022-09-11T03:10:50.054Z,3.73
2022-09-11T03:13:16.956Z,3.53
2022-09-11T03:15:44.099Z,4.30
2022-09-11T03:18:13.744Z,7.40
2022-09-11T03:20:43.741Z,4.23
2022-09-11T03:23:10.827Z,5.30
2022-09-11T03:25:37.728Z,3.57
2022-09-11T03:28:05.769Z,5.90
2022-09-11T03:30:33.555Z,5.60
2022-09-11T03:33:04.288Z,5.37
2022-09-11T03:35:31.189Z,5.57
2022-09-11T03:37:58.114Z,4.17
2022-09-11T03:40:24.989Z,4.33
2022-09-11T03:42:51.849Z,6.27
2022-09-11T03:45:19.363Z,5.77
2022-09-11T03:47:46.302Z,3.30
2022-09-11T03:50:13.360Z,4.03
2022-09-11T03:52:40.275Z,7.10
2022-09-11T03:55:07.753Z,4.87
2022-09-11T03:57:35.703Z,4.13
2022-09-11T04:00:04.205Z,4.47
2022-09-11T04:02:31.870Z,4.63
2022-09-11T04:04:58.749Z,3.53
2022-09-11T04:07:25.924Z,4.23
2022-09-11T04:09:52.843Z,2.63
2022-09-11T04:12:19.690Z,2.83
2022-09-11T04:14:46.588Z,4.10
2022-09-11T04:17:13.399Z,3.23
2022-09-11T04:19:40.264Z,3.03
2022-09-11T04:22:07.423Z,4.03
2022-09-11T04:24:34.780Z,3.43
2022-09-11T04:27:01.674Z,5.80
2022-09-11T04:29:29.260Z,3.37
2022-09-11T04:31:56.330Z,5.77
2022-09-11T04:34:24.283Z,5.10
2022-09-11T04:36:51.151Z,5.03
2022-09-11T04:39:19.005Z,5.50
2022-09-11T04:41:45.943Z,5.10
2022-09-11T04:44:13.169Z,6.03
2022-09-11T04:46:41.141Z,7.03
2022-09-11T04:49:09.224Z,6.37
2022-09-11T04:51:38.342Z,5.90
2022-09-11T04:54:05.891Z,6.40
2022-09-11T04:56:34.591Z,5.60
2022-09-11T04:59:15.922Z,6.07
2022-09-11T05:01:44.428Z,8.90
2022-09-11T05:04:15.363Z,10.93
2022-09-11T05:06:44.451Z,11.10
2022-09-11T05:09:11.677Z,10.70
2022-09-11T05:11:39.401Z,11.87
2022-09-11T05:14:06.945Z,11.10
2022-09-11T05:16:36.376Z,11.87
2022-09-11T05:19:04.447Z,10.97
2022-09-11T05:21:33.439Z,10.03
2022-09-11T05:24:02.575Z,9.80
2022-09-11T05:26:35.334Z,10.87
2022-09-11T05:29:05.048Z,12.00
2022-09-11T05:31:33.157Z,12.00
2022-09-11T05:34:01.120Z,11.27
2022-09-11T05:36:28.529Z,12.57
2022-09-11T05:38:55.552Z,10.13
2022-09-11T05:41:25.949Z,12.10
2022-09-11T05:43:52.859Z,12.13
2022-09-11T05:46:20.824Z,12.13
2022-09-11T05:48:49.103Z,11.47
2022-09-11T05:51:21.735Z,12.13
2022-09-11T05:53:58.763Z,15.23
2022-09-11T05:56:26.004Z,11.93
2022-09-11T05:58:53.266Z,12.23
2022-09-11T06:01:22.895Z,13.17
2022-09-11T06:03:50.822Z,13.13
2022-09-11T06:06:19.600Z,12.77
2022-09-11T06:08:47.507Z,15.57
2022-09-11T06:11:16.083Z,12.50
2022-09-11T06:13:44.782Z,13.67
2022-09-11T06:16:18.606Z,11.60
2022-09-11T06:18:49.418Z,12.17
2022-09-11T06:21:19.227Z,12.37
2022-09-11T06:23:52.016Z,11.97
2022-09-11T06:26:25.104Z,12.13
2022-09-11T06:28:52.968Z,14.27
2022-09-11T06:31:22.307Z,12.17
2022-09-11T06:33:50.430Z,13.00
2022-09-11T06:36:27.128Z,14.27
2022-09-11T06:38:55.734Z,14.57
2022-09-11T06:41:24.549Z,12.80
2022-09-11T06:43:52.817Z,13.23
2022-09-11T06:46:22.366Z,13.53
2022-09-11T06:48:51.068Z,11.70
2022-09-11T06:51:20.272Z,11.37
2022-09-11T06:53:47.916Z,12.50
2022-09-11T06:56:19.010Z,10.47
2022-09-11T06:58:46.665Z,11.03
2022-09-11T07:01:15.843Z,14.30
2022-09-11T07:03:50.389Z,12.17
2022-09-11T07:06:20.407Z,12.53
2022-09-11T07:08:56.851Z,12.73
2022-09-11T07:11:24.750Z,11.43
2022-09-11T07:13:51.638Z,11.37
2022-09-11T07:16:18.753Z,11.27
2022-09-11T07:18:48.216Z,10.30
2022-09-11T07:21:21.999Z,10.67
2022-09-11T07:23:53.005Z,11.33
2022-09-11T07:26:20.301Z,11.27
2022-09-11T07:28:50.305Z,12.87
2022-09-11T07:31:21.582Z,12.10
2022-09-11T07:33:52.695Z,10.93
2022-09-11T07:36:25.306Z,12.13
2022-09-11T07:38:54.872Z,11.67
2022-09-11T07:41:25.001Z,9.93
2022-09-11T07:43:57.953Z,11.20
2022-09-11T07:46:25.331Z,10.70
2022-09-11T07:48:52.617Z,10.43
2022-09-11T07:51:22.738Z,9.47
2022-09-11T07:53:54.021Z,11.20
2022-09-11T07:56:25.147Z,9.50
2022-09-11T07:58:55.076Z,8.70
2022-09-11T08:01:29.783Z,8.47
2022-09-11T08:04:00.170Z,7.63
2022-09-11T08:06:30.560Z,7.80
2022-09-11T08:09:05.912Z,6.23
2022-09-11T08:11:43.179Z,9.00
2022-09-11T08:14:13.828Z,4.27
2022-09-11T08:16:42.845Z,4.87
2022-09-11T08:19:20.966Z,7.57
2022-09-11T08:21:51.131Z,5.78
2022-09-11T08:24:21.555Z,4.05
2022-09-11T08:26:49.888Z,5.15
2022-09-11T08:29:18.412Z,3.15
2022-09-11T08:31:46.833Z,4.78
2022-09-11T08:34:13.859Z,3.20
2022-09-11T08:36:42.867Z,3.97
2022-09-11T08:39:15.971Z,2.75
2022-09-11T08:41:56.734Z,2.50
2022-09-11T08:44:44.672Z,4.82
2022-09-11T08:47:24.536Z,3.67
2022-09-11T08:50:20.429Z,4.28
2022-09-11T08:52:50.774Z,3.50
2022-09-11T08:55:35.811Z,3.95
2022-09-11T08:58:22.012Z,3.92
2022-09-11T09:01:26.496Z,5.10
2022-09-11T09:04:36.223Z,4.47
2022-09-11T09:07:23.086Z,3.07
2022-09-11T09:09:59.089Z,2.87
2022-09-11T09:12:51.663Z,3.97
2022-09-11T09:15:45.544Z,4.13
2022-09-11T09:18:38.453Z,3.63
2022-09-11T09:21:31.419Z,6.53
2022-09-11T09:24:29.292Z,3.37
2022-09-11T09:26:57.625Z,5.27
2022-09-11T09:29:36.972Z,6.37
2022-09-11T09:32:13.196Z,6.37
2022-09-11T09:34:49.633Z,4.33
2022-09-11T09:37:23.596Z,4.33
2022-09-11T09:39:52.007Z,3.70
2022-09-11T09:42:35.963Z,4.70
2022-09-11T09:45:33.926Z,3.83
2022-09-11T09:48:01.669Z,5.87
2022-09-11T09:50:34.914Z,4.63
2022-09-11T09:53:28.047Z,5.47
2022-09-11T09:56:00.036Z,4.43
2022-09-11T09:58:36.880Z,3.23
2022-09-11T10:01:25.471Z,3.60
2022-09-11T10:04:30.176Z,6.82
2022-09-11T10:07:11.614Z,2.30
2022-09-11T10:09:47.081Z,2.53
2022-09-11T10:12:28.007Z,2.78
2022-09-11T10:15:02.563Z,2.38
2022-09-11T10:17:38.464Z,4.20
2022-09-11T10:20:25.960Z,1.85
2022-09-11T10:22:56.316Z,2.80
2022-09-11T10:25:26.869Z,2.20
2022-09-11T10:28:15.178Z,2.47
2022-09-11T10:31:03.683Z,4.38
2022-09-11T10:33:41.587Z,2.92
2022-09-11T10:36:12.229Z,5.07
2022-09-11T10:38:45.588Z,4.03
2022-09-11T10:41:12.719Z,4.53
2022-09-11T10:43:56.936Z,3.28
2022-09-11T10:46:30.199Z,2.97
2022-09-11T10:49:04.097Z,2.40
2022-09-11T10:51:36.036Z,4.53
2022-09-11T10:54:13.414Z,4.32
2022-09-11T10:56:54.967Z,7.25
2022-09-11T10:59:31.619Z,2.38
2022-09-11T11:02:00.978Z,4.55
2022-09-11T11:04:31.908Z,2.90
2022-09-11T11:07:09.974Z,3.58
2022-09-11T11:10:10.206Z,1.77
2022-09-11T11:13:14.677Z,4.32
2022-09-11T11:15:48.703Z,3.75
2022-09-11T11:18:48.359Z,2.88
2022-09-11T11:21:48.941Z,4.20
2022-09-11T11:24:32.469Z,3.33
2022-09-11T11:27:25.898Z,3.35
2022-09-11T11:30:15.811Z,3.38
2022-09-11T11:32:51.724Z,2.75
2022-09-11T11:35:21.735Z,2.10
2022-09-11T11:38:03.174Z,3.03
2022-09-11T11:40:53.431Z,1.33
2022-09-11T11:43:27.744Z,1.30
2022-09-11T11:46:04.767Z,1.95
2022-09-11T11:48:44.789Z,2.25
2022-09-11T11:51:39.448Z,2.80
2022-09-11T11:54:17.645Z,1.50
2022-09-11T11:56:48.606Z,1.10
2022-09-11T11:59:25.034Z,1.80
2022-09-11T12:02:13.991Z,1.98
2022-09-11T12:04:58.592Z,2.20
2022-09-11T12:07:38.948Z,2.92
2022-09-11T12:10:19.161Z,2.72
2022-09-11T12:12:50.183Z,2.05
2022-09-11T12:15:25.004Z,2.83
2022-09-11T12:18:22.871Z,3.10
2022-09-11T12:20:53.385Z,1.65
2022-09-11T12:23:57.820Z,1.63
2022-09-11T12:26:31.696Z,2.03
2022-09-11T12:29:18.933Z,2.75
2022-09-11T12:31:53.934Z,2.25
2022-09-11T12:34:43.930Z,2.13
2022-09-11T12:37:43.069Z,1.92
2022-09-11T12:40:18.767Z,3.05
2022-09-11T12:42:56.105Z,1.83
2022-09-11T12:45:38.530Z,2.38
2022-09-11T12:48:12.544Z,1.45
2022-09-11T12:50:40.532Z,3.05
2022-09-11T12:53:18.979Z,1.85
2022-09-11T12:56:05.093Z,1.27
2022-09-11T12:58:47.840Z,2.30
2022-09-11T13:01:32.067Z,2.25
2022-09-11T13:04:07.133Z,2.33
2022-09-11T13:06:48.082Z,2.72
2022-09-11T13:09:31.534Z,1.77
2022-09-11T13:12:20.071Z,4.95
2022-09-11T13:14:58.660Z,2.90
2022-09-11T13:17:47.469Z,3.22
2022-09-11T13:20:23.168Z,2.28
2022-09-11T13:22:56.181Z,1.70
2022-09-11T13:25:31.132Z,3.70
2022-09-11T13:28:02.386Z,1.40
2022-09-11T13:30:30.486Z,2.47
2022-09-11T13:33:13.490Z,2.63
2022-09-11T13:35:45.163Z,1.08
2022-09-11T13:38:27.451Z,2.03
2022-09-11T13:40:58.790Z,1.85
2022-09-11T13:43:30.541Z,1.85
2022-09-11T13:46:21.262Z,2.63
2022-09-11T13:48:53.299Z,2.58
2022-09-11T13:51:25.459Z,2.10
2022-09-11T13:54:12.945Z,1.27
2022-09-11T13:57:02.051Z,2.33
2022-09-11T13:59:44.832Z,0.98
2022-09-11T14:02:33.711Z,1.95
2022-09-11T14:05:26.315Z,1.67
2022-09-11T14:08:20.506Z,3.05
2022-09-11T14:10:56.984Z,1.38
2022-09-11T14:13:43.878Z,1.58
2022-09-11T14:16:17.069Z,0.95
2022-09-11T14:19:15.135Z,3.33
2022-09-11T14:21:46.917Z,2.15
2022-09-11T14:24:35.015Z,2.10
2022-09-11T14:27:35.297Z,1.30
2022-09-11T14:30:34.813Z,3.72
2022-09-11T14:33:17.744Z,1.40
2022-09-11T14:35:47.708Z,2.53
2022-09-11T14:38:18.149Z,2.42
2022-09-11T14:40:58.626Z,1.63
2022-09-11T14:43:32.746Z,2.55
2022-09-11T14:46:02.150Z,2.03
2022-09-11T14:48:31.979Z,3.25
2022-09-11T14:51:06.985Z,4.78
2022-09-11T14:53:36.977Z,1.63
2022-09-11T14:56:04.305Z,1.67
2022-09-11T14:58:32.754Z,2.90
2022-09-11T15:01:03.183Z,2.05
2022-09-11T15:03:33.312Z,1.05
2022-09-11T15:06:03.474Z,2.47
2022-09-11T15:08:30.397Z,2.15
2022-09-11T15:10:59.343Z,1.45
2022-09-11T15:13:29.465Z,2.17
2022-09-11T15:16:02.657Z,1.67
2022-09-11T15:18:30.768Z,1.73
2022-09-11T15:20:57.636Z,1.88
2022-09-11T15:23:25.500Z,1.35
2022-09-11T15:26:02.667Z,2.25
2022-09-11T15:28:33.607Z,1.25
2022-09-11T15:31:04.357Z,2.40
2022-09-11T15:33:33.132Z,2.15
2022-09-11T15:36:05.856Z,1.60
2022-09-11T15:38:35.813Z,1.48
2022-09-11T15:41:06.867Z,1.52
2022-09-11T15:43:38.880Z,1.38
2022-09-11T15:46:15.015Z,1.35
2022-09-11T15:48:58.847Z,0.82
2022-09-11T15:51:29.053Z,3.15
2022-09-11T15:54:02.783Z,1.58
2022-09-11T15:56:36.160Z,3.47
2022-09-11T15:59:06.396Z,1.83
2022-09-11T16:01:35.514Z,3.05
2022-09-11T16:04:05.550Z,4.20
2022-09-11T16:06:35.293Z,1.77
2022-09-11T16:09:04.657Z,1.73
2022-09-11T16:11:33.021Z,1.58
2022-09-11T16:14:03.004Z,2.45
2022-09-11T16:16:29.884Z,1.83
2022-09-11T16:18:58.863Z,3.00
2022-09-11T16:21:27.267Z,2.75
2022-09-11T16:24:01.798Z,1.90
2022-09-11T16:26:32.056Z,1.83
2022-09-11T16:29:07.752Z,2.47
2022-09-11T16:31:38.363Z,1.93
2022-09-11T16:34:06.107Z,1.60
2022-09-11T16:36:42.649Z,2.53
2022-09-11T16:39:15.077Z,2.30
2022-09-11T16:41:43.639Z,1.87
2022-09-11T16:44:14.265Z,5.73
2022-09-11T16:46:44.892Z,3.00
2022-09-11T16:49:18.710Z,3.50
2022-09-11T16:51:47.868Z,5.57
2022-09-11T16:54:16.383Z,3.83
2022-09-11T16:56:46.383Z,2.97
2022-09-11T16:59:16.828Z,4.20
2022-09-11T17:01:45.452Z,4.60
2022-09-11T17:04:15.497Z,3.93
2022-09-11T17:06:43.445Z,3.40
2022-09-11T17:09:10.393Z,4.93
2022-09-11T17:11:38.361Z,3.07
2022-09-11T17:14:08.554Z,3.53
2022-09-11T17:16:39.108Z,2.47
2022-09-11T17:19:07.764Z,5.53
2022-09-11T17:21:37.076Z,8.63
2022-09-11T17:24:07.711Z,4.47
2022-09-11T17:26:37.698Z,3.00
2022-09-11T17:29:08.107Z,2.80
2022-09-11T17:31:36.032Z,2.77
2022-09-11T17:34:05.100Z,4.00
2022-09-11T17:36:33.324Z,3.27
2022-09-11T17:39:04.112Z,2.93
2022-09-11T17:41:31.346Z,2.77
2022-09-11T17:44:00.360Z,3.40
2022-09-11T17:46:29.627Z,3.30
2022-09-11T17:49:01.607Z,3.50
2022-09-11T17:51:30.584Z,3.70
2022-09-11T17:53:59.807Z,6.77
2022-09-11T17:56:30.965Z,6.33
2022-09-11T17:59:00.749Z,11.20
2022-09-11T18:01:30.776Z,8.73
2022-09-11T18:03:59.911Z,12.90
2022-09-11T18:06:29.693Z,10.20
2022-09-11T18:09:02.075Z,5.40
2022-09-11T18:11:31.436Z,4.07
2022-09-11T18:14:01.406Z,3.57
2022-09-11T18:16:28.993Z,7.20
2022-09-11T18:18:56.984Z,11.93
2022-09-11T18:21:26.393Z,9.77
2022-09-11T18:23:54.870Z,10.07
2022-09-11T18:26:30.303Z,13.37
2022-09-11T18:29:03.051Z,7.00
2022-09-11T18:31:32.824Z,4.93
2022-09-11T18:34:02.909Z,4.53
2022-09-11T18:36:33.331Z,5.20
2022-09-11T18:39:04.291Z,4.70
2022-09-11T18:41:37.448Z,6.23
2022-09-11T18:44:11.045Z,4.53
2022-09-11T18:46:41.716Z,5.63
2022-09-11T18:49:14.771Z,6.77
2022-09-11T18:51:44.739Z,5.90
2022-09-11T18:54:16.616Z,6.03
2022-09-11T18:56:43.952Z,6.23
2022-09-11T18:59:21.197Z,6.73
2022-09-11T19:01:49.273Z,6.33
2022-09-11T19:04:20.312Z,5.73
2022-09-11T19:06:50.353Z,7.67
2022-09-11T19:09:20.432Z,7.70
2022-09-11T19:11:52.491Z,8.57
2022-09-11T19:14:21.145Z,7.87
2022-09-11T19:16:49.201Z,9.40
2022-09-11T19:19:20.160Z,8.63
2022-09-11T19:21:47.149Z,8.97
2022-09-11T19:24:17.297Z,9.03
2022-09-11T19:26:47.750Z,9.90
2022-09-11T19:29:15.909Z,10.23
2022-09-11T19:31:46.729Z,10.70
2022-09-11T19:34:14.826Z,10.43
2022-09-11T19:36:45.238Z,10.80
2022-09-11T19:39:15.247Z,11.67
2022-09-11T19:41:43.183Z,10.83
2022-09-11T19:44:13.729Z,12.13
2022-09-11T19:46:50.086Z,13.23
2022-09-11T19:49:18.117Z,12.37
2022-09-11T19:51:45.196Z,11.87
2022-09-11T19:54:13.632Z,13.00
2022-09-11T19:56:40.968Z,12.83
2022-09-11T19:59:09.229Z,13.00
2022-09-11T20:01:43.055Z,13.40
2022-09-11T20:04:12.434Z,12.23
2022-09-11T20:06:41.425Z,13.70
2022-09-11T20:09:30.042Z,12.47
2022-09-11T20:11:56.339Z,12.87
2022-09-11T20:14:23.421Z,12.50
2022-09-11T20:16:53.458Z,13.17
2022-09-11T20:19:23.798Z,13.47
2022-09-11T20:21:50.674Z,14.17
2022-09-11T20:24:18.000Z,15.13
2022-09-11T20:26:48.056Z,14.93
2022-09-11T20:29:18.086Z,14.90
2022-09-11T20:31:51.236Z,14.23
2022-09-11T20:34:19.423Z,17.13
2022-09-11T20:36:48.388Z,15.57
2022-09-11T20:39:20.182Z,16.93
2022-09-11T20:41:49.248Z,17.57
2022-09-11T20:44:16.201Z,18.50
2022-09-11T20:46:47.640Z,16.70
2022-09-11T20:49:14.612Z,18.57
2022-09-11T20:51:41.738Z,16.73
2022-09-11T20:54:08.925Z,17.80
2022-09-11T20:56:36.031Z,19.13
2022-09-11T20:59:06.097Z,18.47
2022-09-11T21:01:35.165Z,20.40
2022-09-11T21:04:03.986Z,20.13
2022-09-11T21:06:34.413Z,19.10
2022-09-11T21:09:06.072Z,21.37
2022-09-11T21:11:35.102Z,19.40
2022-09-11T21:14:06.296Z,20.43
2022-09-11T21:16:36.327Z,21.33
2022-09-11T21:19:05.707Z,22.33
2022-09-11T21:21:35.314Z,21.53
2022-09-11T21:24:07.843Z,20.33
2022-09-11T21:26:39.143Z,19.27
2022-09-11T21:29:11.200Z,18.40
2022-09-11T21:31:41.187Z,20.70
2022-09-11T21:34:08.189Z,21.13
2022-09-11T21:36:38.223Z,22.63
2022-09-11T21:39:06.572Z,21.60
2022-09-11T21:41:33.657Z,23.73
2022-09-11T21:44:02.986Z,24.80
2022-09-11T21:46:33.201Z,23.93
2022-09-11T21:49:01.840Z,23.30
2022-09-11T21:51:44.167Z,22.20
2022-09-11T21:54:14.155Z,21.93
2022-09-11T21:56:44.204Z,21.57
2022-09-11T21:59:14.219Z,23.43
2022-09-11T22:01:44.683Z,23.73
2022-09-11T22:04:11.613Z,22.67
2022-09-11T22:06:41.611Z,20.67
2022-09-11T22:09:10.824Z,21.27
2022-09-11T22:11:40.791Z,19.33
2022-09-11T22:14:10.921Z,22.17
2022-09-11T22:16:38.845Z,21.47
2022-09-11T22:19:09.363Z,20.03
2022-09-11T22:21:39.942Z,20.23
2022-09-11T22:24:08.886Z,21.30
2022-09-11T22:26:38.817Z,19.90
2022-09-11T22:29:08.554Z,19.07
2022-09-11T22:31:39.200Z,19.37
2022-09-11T22:34:09.703Z,23.20
2022-09-11T22:36:39.773Z,20.17
2022-09-11T22:39:10.012Z,22.10
2022-09-11T22:41:40.063Z,23.10
2022-09-11T22:44:11.258Z,23.93
2022-09-11T22:46:41.957Z,20.97
2022-09-11T22:49:10.704Z,23.83
2022-09-11T22:51:40.716Z,24.10
2022-09-11T22:54:13.476Z,24.67
2022-09-11T22:56:43.711Z,23.33
2022-09-11T22:59:11.721Z,24.73
2022-09-11T23:01:41.950Z,24.97
2022-09-11T23:04:10.856Z,26.20
2022-09-11T23:06:59.409Z,24.57
2022-09-11T23:09:29.452Z,22.87
2022-09-11T23:11:56.360Z,24.53
2022-09-11T23:14:26.423Z,26.33
2022-09-11T23:16:56.401Z,25.80
2022-09-11T23:19:24.261Z,23.10
2022-09-11T23:21:54.977Z,25.17
2022-09-11T23:24:22.898Z,25.57
2022-09-11T23:26:50.883Z,25.87
2022-09-11T23:29:21.091Z,28.30
2022-09-11T23:31:50.002Z,24.70
2022-09-11T23:34:19.980Z,27.90
2022-09-11T23:36:48.991Z,28.10
2022-09-11T23:39:21.875Z,30.07
2022-09-11T23:41:50.899Z,28.60
2022-09-11T23:44:18.888Z,29.10
2022-09-11T23:46:47.888Z,29.40
2022-09-11T23:49:16.095Z,28.33
2022-09-11T23:51:49.114Z,27.83
2022-09-11T23:54:19.284Z,25.77
2022-09-11T23:56:46.233Z,27.00
2022-09-11T23:59:14.240Z,25.73
